Time;durP1;ratioP1;P1;durP2;ratioP2;P2;SDS_P1;SDS_P2;PMS_P1;PMS_P2;Temp;Humidity;BMP_temperature;BMP_pressure;BME280_temperature;BME280_humidity;BME280_pressure;Samples;Min_cycle;Max_cycle;Signal;HPM_P1;HPM_P2
2023/12/28 00:01:38;;;;;;;5.90;3.60;;;3.90;98.00;;;;;;4975238;28;20512;-69
2023/12/28 00:04:07;;;;;;;11.60;4.57;;;4.10;98.00;;;;;;4975047;28;20464;-70
2023/12/28 00:06:35;;;;;;;9.93;4.47;;;4.00;98.00;;;;;;4975061;28;20476;-70
2023/12/28 00:09:03;;;;;;;8.80;3.90;;;3.90;98.00;;;;;;4957693;28;20483;-69
2023/12/28 00:11:31;;;;;;;9.93;4.30;;;3.90;98.00;;;;;;4975083;28;20457;-69
2023/12/28 00:14:01;;;;;;;6.83;3.80;;;3.90;98.00;;;;;;4974905;28;20464;-69
2023/12/28 00:16:28;;;;;;;10.23;4.47;;;3.70;98.00;;;;;;5144272;23;20491;-69
2023/12/28 00:18:55;;;;;;;10.87;4.20;;;3.50;98.00;;;;;;4974471;28;20465;-69
2023/12/28 00:21:23;;;;;;;9.07;3.90;;;3.40;98.00;;;;;;4974143;28;20462;-69
2023/12/28 00:23:50;;;;;;;9.70;3.93;;;3.30;98.00;;;;;;4974357;28;20442;-69
2023/12/28 00:26:21;;;;;;;7.40;3.67;;;3.40;98.00;;;;;;4974335;28;20452;-69
2023/12/28 00:28:48;;;;;;;7.77;3.43;;;3.50;98.00;;;;;;4973886;28;20497;-69
2023/12/28 00:31:23;;;;;;;10.10;4.03;;;3.70;98.00;;;;;;4974007;28;20831;-69
2023/12/28 00:33:50;;;;;;;8.67;4.10;;;3.90;98.00;;;;;;4973972;28;20460;-69
2023/12/28 00:36:20;;;;;;;11.77;5.60;;;3.90;98.00;;;;;;4973728;28;20542;-69
2023/12/28 00:38:47;;;;;;;12.53;5.20;;;4.00;98.00;;;;;;4973598;28;20459;-69
2023/12/28 00:41:15;;;;;;;10.97;4.97;;;3.90;98.00;;;;;;4973904;28;20959;-69
2023/12/28 00:43:42;;;;;;;8.80;4.80;;;3.70;98.00;;;;;;4973762;28;20462;-69
2023/12/28 00:46:09;;;;;;;10.17;4.50;;;3.60;98.00;;;;;;4973758;28;20464;-69
2023/12/28 00:48:37;;;;;;;7.07;4.10;;;3.50;98.00;;;;;;4973376;28;20487;-68
2023/12/28 00:51:05;;;;;;;6.70;3.47;;;3.50;98.00;;;;;;4973575;28;20446;-69
2023/12/28 00:53:32;;;;;;;6.30;3.37;;;3.60;98.00;;;;;;4973811;28;20459;-69
2023/12/28 00:55:59;;;;;;;7.17;3.50;;;3.80;98.00;;;;;;4973736;28;21042;-69
2023/12/28 00:58:26;;;;;;;8.27;3.53;;;3.80;98.00;;;;;;4973580;28;20455;-69
2023/12/28 01:00:55;;;;;;;6.93;2.90;;;3.80;98.00;;;;;;4973272;28;20457;-69
2023/12/28 01:03:22;;;;;;;8.40;4.30;;;3.90;98.00;;;;;;4973157;28;21034;-68
2023/12/28 01:05:52;;;;;;;8.50;4.20;;;4.00;98.00;;;;;;4972982;28;20459;-69
2023/12/28 01:08:20;;;;;;;11.93;4.57;;;4.00;98.00;;;;;;4973356;28;20486;-69
2023/12/28 01:10:47;;;;;;;11.60;4.97;;;3.80;98.00;;;;;;4973077;28;20453;-69
2023/12/28 01:13:15;;;;;;;9.17;4.27;;;3.70;98.00;;;;;;4973109;28;20460;-69
2023/12/28 01:15:42;;;;;;;7.30;3.77;;;3.70;98.00;;;;;;4972620;28;20474;-69
2023/12/28 01:18:13;;;;;;;5.10;2.87;;;3.60;98.00;;;;;;4973147;28;20864;-69
2023/12/28 01:20:41;;;;;;;5.20;3.03;;;3.60;98.00;;;;;;4972847;28;20488;-68
2023/12/28 01:23:09;;;;;;;5.20;2.70;;;3.70;98.00;;;;;;4972972;28;20461;-69
2023/12/28 01:25:39;;;;;;;5.50;3.30;;;4.00;98.00;;;;;;4972909;28;20512;-69
2023/12/28 01:28:06;;;;;;;6.43;3.60;;;4.20;98.00;;;;;;4972968;28;20478;-69
2023/12/28 01:30:34;;;;;;;10.93;5.80;;;4.30;98.00;;;;;;4972750;28;20455;-69
2023/12/28 01:33:01;;;;;;;20.30;7.70;;;4.30;98.00;;;;;;4973130;28;20484;-68
2023/12/28 01:35:28;;;;;;;9.90;4.93;;;4.20;98.00;;;;;;4973123;28;20461;-68
2023/12/28 01:38:00;;;;;;;7.37;3.77;;;4.10;98.00;;;;;;4972790;28;20518;-69
2023/12/28 01:40:31;;;;;;;6.07;3.07;;;4.20;98.00;;;;;;4973340;28;20456;-69
2023/12/28 01:42:58;;;;;;;4.87;2.83;;;4.20;98.00;;;;;;4973669;28;20468;-69
2023/12/28 01:45:33;;;;;;;5.67;3.07;;;4.30;98.00;;;;;;4972792;28;20460;-69
2023/12/28 01:48:01;;;;;;;4.00;2.47;;;4.40;98.00;;;;;;4972752;28;20834;-69
2023/12/28 01:50:28;;;;;;;5.77;2.53;;;4.70;98.00;;;;;;4972657;28;20973;-69
2023/12/28 01:52:59;;;;;;;5.60;2.90;;;5.10;98.00;;;;;;4972739;28;20450;-69
2023/12/28 01:55:27;;;;;;;7.47;3.70;;;5.50;98.00;;;;;;4972425;28;20463;-69
2023/12/28 01:57:56;;;;;;;7.17;3.50;;;5.60;98.00;;;;;;4972418;28;20466;-69
2023/12/28 02:00:23;;;;;;;7.43;3.47;;;5.50;98.00;;;;;;4972367;28;20460;-69
2023/12/28 02:02:51;;;;;;;7.10;3.30;;;5.50;98.00;;;;;;4972269;28;20463;-68
2023/12/28 02:05:19;;;;;;;6.57;3.37;;;5.50;98.00;;;;;;4972521;28;20832;-69
2023/12/28 02:07:49;;;;;;;6.60;3.30;;;5.50;98.00;;;;;;4991209;23;20467;-88
2023/12/28 02:10:22;;;;;;;11.63;4.47;;;5.70;98.00;;;;;;4998148;28;20473;-88
2023/12/28 02:12:49;;;;;;;10.43;5.00;;;5.70;98.00;;;;;;4994272;28;20468;-88
2023/12/28 02:15:21;;;;;;;7.83;3.93;;;5.60;98.00;;;;;;4992753;28;20458;-88
2023/12/28 02:17:59;;;;;;;6.47;4.10;;;5.50;98.00;;;;;;4992977;28;20461;-88
2023/12/28 02:20:30;;;;;;;7.60;3.77;;;5.40;98.00;;;;;;4993265;28;20440;-88
2023/12/28 02:22:58;;;;;;;7.87;3.77;;;5.30;98.00;;;;;;4992290;28;20440;-88
2023/12/28 02:25:27;;;;;;;8.70;3.90;;;5.30;98.00;;;;;;4992816;28;20462;-88
2023/12/28 02:27:54;;;;;;;6.80;3.47;;;5.20;98.00;;;;;;4992951;28;20462;-88
2023/12/28 02:30:25;;;;;;;7.20;3.53;;;5.10;98.00;;;;;;4993503;28;20439;-88
2023/12/28 02:33:03;;;;;;;9.90;3.50;;;5.10;98.00;;;;;;4992540;28;20463;-88
2023/12/28 02:35:43;;;;;;;7.03;3.20;;;5.10;98.00;;;;;;4992530;28;20529;-87
2023/12/28 02:38:12;;;;;;;6.50;3.40;;;4.90;98.00;;;;;;4993327;28;20458;-88
2023/12/28 02:40:43;;;;;;;6.73;3.63;;;4.80;98.00;;;;;;4992578;28;20472;-88
2023/12/28 02:43:11;;;;;;;7.60;3.60;;;4.80;98.00;;;;;;4992217;28;20454;-88
2023/12/28 02:45:39;;;;;;;7.60;3.50;;;4.80;98.00;;;;;;4993833;28;20481;-88
2023/12/28 02:48:11;;;;;;;8.43;3.90;;;4.80;98.00;;;;;;4995116;28;20967;-87
2023/12/28 02:50:39;;;;;;;6.00;3.20;;;4.90;98.00;;;;;;4994120;28;20456;-88
2023/12/28 02:53:06;;;;;;;7.87;3.37;;;4.90;98.00;;;;;;4994651;28;20519;-88
2023/12/28 02:55:41;;;;;;;7.17;3.23;;;4.90;98.00;;;;;;4994467;28;20475;-88
2023/12/28 02:58:08;;;;;;;7.40;3.47;;;4.80;98.00;;;;;;4997364;28;20486;-88
2023/12/28 03:00:41;;;;;;;7.20;3.50;;;4.80;98.00;;;;;;4993729;28;20550;-88
2023/12/28 03:03:08;;;;;;;5.37;3.13;;;4.80;98.00;;;;;;4996991;28;20439;-88
2023/12/28 03:05:35;;;;;;;6.03;3.20;;;4.70;98.00;;;;;;4996722;28;20475;-88
2023/12/28 03:08:02;;;;;;;5.20;2.83;;;4.60;98.00;;;;;;4995956;28;20548;-88
2023/12/28 03:10:29;;;;;;;6.40;3.10;;;4.60;98.00;;;;;;4996076;28;20822;-88
2023/12/28 03:12:58;;;;;;;5.37;3.50;;;4.70;98.00;;;;;;4995413;28;20509;-88
2023/12/28 03:15:27;;;;;;;4.77;2.80;;;4.80;98.00;;;;;;4996682;28;20467;-88
2023/12/28 03:18:09;;;;;;;9.10;4.03;;;4.80;98.00;;;;;;4998562;28;20458;-88
2023/12/28 03:20:37;;;;;;;9.40;3.53;;;4.80;98.00;;;;;;4995453;28;20466;-88
2023/12/28 03:23:06;;;;;;;8.37;3.70;;;4.60;98.00;;;;;;4995675;28;20879;-88
2023/12/28 03:25:33;;;;;;;7.27;3.60;;;;;;;;;;4996540;28;20486;-88
2023/12/28 03:28:02;;;;;;;9.00;4.10;;;4.20;98.00;;;;;;4995740;28;20463;-88
2023/12/28 03:30:35;;;;;;;7.27;3.80;;;4.00;98.00;;;;;;4994642;28;20484;-88
2023/12/28 03:33:02;;;;;;;8.30;3.70;;;4.00;98.00;;;;;;4997957;28;20565;-87
2023/12/28 03:35:30;;;;;;;5.97;2.93;;;4.10;98.00;;;;;;4995388;28;20536;-87
2023/12/28 03:38:01;;;;;;;6.07;3.20;;;4.00;98.00;;;;;;4999777;28;20463;-87
2023/12/28 03:40:28;;;;;;;5.60;2.80;;;4.10;98.00;;;;;;4998898;28;20542;-88
2023/12/28 03:42:55;;;;;;;7.43;3.93;;;4.20;98.00;;;;;;5003335;28;20551;-88
2023/12/28 03:45:23;;;;;;;7.33;3.10;;;4.30;98.00;;;;;;4995071;28;20472;-88
2023/12/28 03:47:51;;;;;;;6.57;3.50;;;4.20;98.00;;;;;;4995208;28;20492;-87
2023/12/28 03:50:18;;;;;;;6.80;3.70;;;3.90;98.00;;;;;;4995073;28;20492;-88
2023/12/28 03:52:45;;;;;;;4.63;2.90;;;3.80;98.00;;;;;;4994668;28;20544;-87
2023/12/28 03:55:12;;;;;;;6.20;3.50;;;3.90;98.00;;;;;;4994041;28;20441;-87
2023/12/28 03:57:49;;;;;;;5.80;3.17;;;3.90;98.00;;;;;;4995225;28;20470;-88
2023/12/28 04:00:16;;;;;;;4.83;2.80;;;4.10;98.00;;;;;;4994601;28;20938;-89
2023/12/28 04:03:00;;;;;;;5.77;3.00;;;4.00;98.00;;;;;;4994069;28;20983;-87
2023/12/28 04:05:27;;;;;;;6.43;3.40;;;4.20;98.00;;;;;;4993830;28;20498;-88
2023/12/28 04:07:54;;;;;;;5.57;3.17;;;4.30;98.00;;;;;;4994774;28;20462;-87
2023/12/28 04:10:31;;;;;;;5.33;3.00;;;4.40;98.00;;;;;;4994221;28;20492;-89
2023/12/28 04:12:59;;;;;;;6.20;3.23;;;4.50;98.00;;;;;;4993788;28;20444;-88
2023/12/28 04:15:28;;;;;;;7.13;2.90;;;4.70;98.00;;;;;;4994733;28;20908;-88
2023/12/28 04:18:00;;;;;;;5.57;3.00;;;4.80;98.00;;;;;;4994368;28;20451;-88
2023/12/28 04:20:27;;;;;;;4.20;2.70;;;4.90;98.00;;;;;;4994688;28;21085;-87
2023/12/28 04:22:54;;;;;;;8.90;2.80;;;4.90;98.00;;;;;;4994427;28;20456;-88
2023/12/28 04:25:21;;;;;;;4.77;2.43;;;5.10;98.00;;;;;;4994532;28;20440;-88
2023/12/28 04:27:49;;;;;;;3.80;2.30;;;5.20;98.00;;;;;;4994380;28;20555;-88
2023/12/28 04:30:18;;;;;;;7.30;3.10;;;5.30;98.00;;;;;;4994562;28;21004;-88
2023/12/28 04:32:46;;;;;;;7.60;3.60;;;5.50;98.00;;;;;;4994535;28;20456;-88
2023/12/28 04:35:14;;;;;;;9.93;3.40;;;5.50;98.00;;;;;;4996334;28;20453;-88
2023/12/28 04:37:48;;;;;;;7.77;3.90;;;5.50;98.00;;;;;;5004448;28;20445;-87
2023/12/28 04:40:16;;;;;;;8.30;3.70;;;5.50;98.00;;;;;;5001079;28;20444;-87
2023/12/28 04:42:44;;;;;;;7.40;3.23;;;5.30;98.00;;;;;;4993963;28;20508;-88
2023/12/28 04:45:11;;;;;;;6.03;2.67;;;5.20;98.00;;;;;;4994090;28;20924;-88
2023/12/28 04:47:38;;;;;;;5.60;2.63;;;5.40;98.00;;;;;;4993878;28;20932;-88
2023/12/28 04:50:07;;;;;;;7.67;3.13;;;5.60;98.00;;;;;;4993194;28;20486;-88
2023/12/28 04:52:35;;;;;;;4.80;2.47;;;5.90;98.00;;;;;;4993654;28;20440;-88
2023/12/28 04:55:02;;;;;;;4.53;2.53;;;6.20;98.00;;;;;;4993031;28;20885;-88
2023/12/28 04:57:35;;;;;;;3.67;2.30;;;6.60;98.00;;;;;;4993944;28;20489;-88
2023/12/28 05:00:03;;;;;;;4.60;2.50;;;7.00;98.00;;;;;;4993845;28;20447;-88
2023/12/28 05:02:30;;;;;;;2.97;2.10;;;7.20;98.00;;;;;;4993259;28;20448;-87
2023/12/28 05:04:57;;;;;;;4.53;2.30;;;7.40;98.00;;;;;;4993003;28;20949;-89
2023/12/28 05:07:24;;;;;;;3.70;2.50;;;7.60;98.00;;;;;;4993570;28;20478;-88
2023/12/28 05:09:53;;;;;;;4.87;2.27;;;7.70;98.00;;;;;;4993087;28;20844;-88
2023/12/28 05:12:20;;;;;;;3.47;2.20;;;7.80;98.00;;;;;;4993287;28;20847;-88
2023/12/28 05:14:47;;;;;;;2.93;2.13;;;8.00;98.00;;;;;;4993199;28;20536;-88
2023/12/28 05:17:14;;;;;;;13.83;2.50;;;8.10;98.00;;;;;;4993598;28;20854;-89
2023/12/28 05:19:41;;;;;;;4.67;2.50;;;8.20;98.00;;;;;;4993551;28;20444;-88
2023/12/28 05:22:10;;;;;;;4.80;2.70;;;8.30;98.00;;;;;;4992169;28;20477;-88
2023/12/28 05:24:38;;;;;;;3.90;2.47;;;8.50;98.00;;;;;;4992708;28;20539;-88
2023/12/28 05:27:07;;;;;;;4.13;2.40;;;8.60;98.00;;;;;;4993494;28;20491;-88
2023/12/28 05:29:34;;;;;;;4.10;2.30;;;8.70;98.00;;;;;;4993225;28;20489;-88
2023/12/28 05:32:01;;;;;;;2.90;2.33;;;8.90;98.00;;;;;;4992686;28;20443;-88
2023/12/28 05:34:28;;;;;;;3.70;2.47;;;9.00;98.00;;;;;;4993216;28;20965;-89
2023/12/28 05:36:55;;;;;;;3.30;2.30;;;9.00;98.00;;;;;;4992993;28;20487;-89
2023/12/28 05:39:22;;;;;;;5.90;2.37;;;9.00;98.00;;;;;;4993445;28;20438;-88
2023/12/28 05:41:50;;;;;;;3.20;2.20;;;9.10;98.00;;;;;;4992481;28;20795;-88
2023/12/28 05:44:20;;;;;;;3.50;2.50;;;9.30;98.00;;;;;;4993173;28;20931;-88
2023/12/28 05:46:47;;;;;;;4.53;2.30;;;9.40;98.00;;;;;;4992430;28;20480;-88
2023/12/28 05:49:15;;;;;;;4.33;2.40;;;9.50;98.00;;;;;;4993083;28;20445;-88
2023/12/28 05:51:43;;;;;;;4.73;2.60;;;9.50;98.00;;;;;;4992564;28;20445;-88
2023/12/28 05:54:10;;;;;;;4.50;2.27;;;9.50;98.00;;;;;;4993346;28;20445;-88
2023/12/28 05:56:37;;;;;;;3.80;2.00;;;9.60;98.00;;;;;;4992710;28;20993;-88
2023/12/28 05:59:04;;;;;;;4.30;2.33;;;9.70;98.00;;;;;;4992396;28;21017;-88
2023/12/28 06:01:33;;;;;;;5.50;2.60;;;9.80;98.00;;;;;;4992464;28;20567;-88
2023/12/28 06:04:05;;;;;;;2.83;2.20;;;9.90;98.00;;;;;;4992925;28;20460;-88
2023/12/28 06:06:33;;;;;;;4.80;2.63;;;9.90;98.00;;;;;;4992769;28;20496;-88
2023/12/28 06:09:00;;;;;;;4.00;2.40;;;9.90;98.00;;;;;;4992570;28;20530;-88
2023/12/28 06:11:31;;;;;;;3.00;2.33;;;10.00;98.00;;;;;;4991991;28;20427;-89
2023/12/28 06:14:00;;;;;;;4.77;2.60;;;9.90;98.00;;;;;;4992907;28;20515;-88
2023/12/28 06:16:32;;;;;;;5.17;2.57;;;9.90;98.00;;;;;;4992203;28;20510;-88
2023/12/28 06:19:06;;;;;;;4.87;2.80;;;9.80;98.00;;;;;;4992134;28;20463;-89
2023/12/28 06:21:36;;;;;;;4.97;2.83;;;9.70;98.00;;;;;;4992138;28;20550;-88
2023/12/28 06:24:03;;;;;;;4.50;2.70;;;9.50;98.00;;;;;;4992814;28;20471;-89
2023/12/28 06:26:30;;;;;;;8.53;3.60;;;9.50;98.00;;;;;;4992628;28;20571;-88
2023/12/28 06:28:57;;;;;;;6.07;3.03;;;9.30;98.00;;;;;;4993872;28;20460;-88
2023/12/28 06:31:25;;;;;;;4.10;2.70;;;9.20;98.00;;;;;;4996276;28;20527;-88
2023/12/28 06:33:52;;;;;;;5.77;3.03;;;9.00;98.00;;;;;;4995937;28;20463;-88
2023/12/28 06:36:21;;;;;;;4.40;2.53;;;8.90;98.00;;;;;;5011464;28;20473;-89
2023/12/28 06:38:48;;;;;;;4.97;2.80;;;8.80;98.00;;;;;;4996817;28;20455;-88
2023/12/28 06:41:15;;;;;;;4.13;2.70;;;8.80;98.00;;;;;;5198553;23;20499;-67
2023/12/28 06:43:42;;;;;;;5.93;2.80;;;8.80;98.00;;;;;;4995404;28;20453;-66
2023/12/28 06:46:09;;;;;;;4.90;2.87;;;8.80;98.00;;;;;;4994591;28;20464;-66
2023/12/28 06:48:40;;;;;;;3.70;2.50;;;8.70;98.00;;;;;;4995301;28;20455;-67
2023/12/28 06:51:07;;;;;;;4.53;2.50;;;8.70;98.00;;;;;;4995147;28;20495;-66
2023/12/28 06:53:35;;;;;;;4.67;2.83;;;8.70;98.00;;;;;;4995107;28;20465;-66
2023/12/28 06:56:03;;;;;;;4.03;2.20;;;8.70;98.00;;;;;;4994561;28;20464;-67
2023/12/28 06:58:30;;;;;;;5.10;2.60;;;8.70;98.00;;;;;;4995049;28;20484;-66
2023/12/28 07:00:57;;;;;;;4.20;2.60;;;8.70;98.00;;;;;;4994775;28;20453;-63
2023/12/28 07:03:25;;;;;;;6.30;2.33;;;8.70;98.00;;;;;;4995052;28;20464;-63
2023/12/28 07:05:52;;;;;;;4.90;2.30;;;8.80;98.00;;;;;;4994166;28;20460;-63
2023/12/28 07:08:19;;;;;;;3.83;2.13;;;8.80;98.00;;;;;;4994960;28;20463;-63
2023/12/28 07:10:48;;;;;;;2.70;2.13;;;8.90;98.00;;;;;;4994700;28;20543;-63
2023/12/28 07:13:15;;;;;;;3.30;2.20;;;9.00;98.00;;;;;;4994277;28;20817;-63
2023/12/28 07:15:42;;;;;;;7.33;2.37;;;9.10;98.00;;;;;;4993432;28;20465;-63
2023/12/28 07:18:09;;;;;;;4.27;2.40;;;9.10;98.00;;;;;;4994698;28;20463;-63
2023/12/28 07:20:36;;;;;;;3.63;2.40;;;9.10;98.00;;;;;;4992711;28;20466;-63
2023/12/28 07:23:03;;;;;;;4.00;2.37;;;9.10;98.00;;;;;;4994510;28;20468;-63
2023/12/28 07:25:29;;;;;;;3.43;2.50;;;9.00;98.00;;;;;;4994217;28;20576;-63
2023/12/28 07:27:58;;;;;;;3.13;2.47;;;8.90;98.00;;;;;;4994366;28;20547;-63
2023/12/28 07:30:25;;;;;;;3.33;2.13;;;8.90;98.00;;;;;;4993602;28;20995;-63
2023/12/28 07:32:52;;;;;;;3.00;2.07;;;8.90;98.00;;;;;;4994589;28;20461;-63
2023/12/28 07:35:19;;;;;;;4.93;2.77;;;8.90;98.00;;;;;;4994403;28;20469;-63
2023/12/28 07:37:46;;;;;;;3.27;2.60;;;8.90;98.00;;;;;;4994417;28;20855;-63
2023/12/28 07:40:14;;;;;;;7.13;3.83;;;9.00;98.00;;;;;;4993436;28;20507;-64
2023/12/28 07:42:41;;;;;;;7.00;3.70;;;9.10;98.00;;;;;;4994272;28;20481;-63
2023/12/28 07:45:10;;;;;;;5.30;3.33;;;9.00;98.00;;;;;;4992921;28;20457;-64
2023/12/28 07:47:37;;;;;;;5.73;2.90;;;8.80;98.00;;;;;;4993022;28;20484;-63
2023/12/28 07:50:05;;;;;;;4.40;2.60;;;8.70;98.00;;;;;;4993857;28;20480;-64
2023/12/28 07:52:33;;;;;;;2.80;2.10;;;8.60;98.00;;;;;;4994360;28;20444;-64
2023/12/28 07:55:00;;;;;;;4.17;2.63;;;8.60;98.00;;;;;;4994159;28;20456;-64
2023/12/28 07:57:30;;;;;;;4.00;2.60;;;8.70;98.00;;;;;;4993775;28;20509;-63
2023/12/28 07:59:57;;;;;;;4.67;2.70;;;8.70;98.00;;;;;;4994257;28;20524;-63
2023/12/28 08:02:36;;;;;;;8.43;4.03;;;8.70;98.00;;;;;;4994305;28;20851;-64
2023/12/28 08:05:03;;;;;;;8.00;4.07;;;8.80;98.00;;;;;;4994122;28;20745;-63
2023/12/28 08:07:30;;;;;;;8.27;4.03;;;8.80;98.00;;;;;;4993200;28;20452;-63
2023/12/28 08:09:57;;;;;;;9.20;4.30;;;8.80;98.00;;;;;;4993381;28;20461;-64
2023/12/28 08:12:27;;;;;;;9.90;4.43;;;8.90;98.00;;;;;;4993851;28;20808;-63
2023/12/28 08:14:55;;;;;;;11.77;4.87;;;8.80;98.00;;;;;;4993529;28;20451;-63
2023/12/28 08:17:22;;;;;;;7.17;3.50;;;8.80;98.00;;;;;;4975958;28;20541;-63
2023/12/28 08:19:51;;;;;;;8.53;3.97;;;8.90;98.00;;;;;;4993366;28;20458;-63
2023/12/28 08:22:18;;;;;;;7.70;3.67;;;8.70;98.00;;;;;;4993538;28;20825;-63
2023/12/28 08:24:48;;;;;;;5.33;3.17;;;8.60;98.00;;;;;;4993454;28;20457;-64
2023/12/28 08:27:15;;;;;;;5.53;2.80;;;8.60;98.00;;;;;;4993230;28;20452;-63
2023/12/28 08:29:43;;;;;;;6.30;3.23;;;8.50;98.00;;;;;;4993343;28;20458;-64
2023/12/28 08:32:11;;;;;;;5.37;2.90;;;8.50;98.00;;;;;;4992834;28;20551;-64
2023/12/28 08:34:38;;;;;;;7.13;3.10;;;8.50;98.00;;;;;;4993359;28;20487;-63
2023/12/28 08:37:06;;;;;;;5.90;3.37;;;8.50;98.00;;;;;;4993267;28;20468;-64
2023/12/28 08:39:34;;;;;;;5.10;2.80;;;8.50;98.00;;;;;;4989829;28;20450;-64
2023/12/28 08:42:03;;;;;;;6.87;3.10;;;8.50;98.00;;;;;;4989586;28;20933;-64
2023/12/28 08:44:30;;;;;;;4.70;2.60;;;8.60;98.00;;;;;;4992815;28;20511;-64
2023/12/28 08:47:02;;;;;;;6.67;3.17;;;8.60;98.00;;;;;;4992850;28;20450;-64
2023/12/28 08:49:29;;;;;;;7.10;3.30;;;8.70;98.00;;;;;;4992423;28;20461;-64
2023/12/28 08:51:56;;;;;;;5.47;3.00;;;8.80;98.00;;;;;;4992530;28;20489;-64
2023/12/28 08:54:24;;;;;;;4.80;2.80;;;8.90;98.00;;;;;;4992793;28;20948;-63
2023/12/28 08:56:51;;;;;;;8.67;4.63;;;8.80;98.00;;;;;;4992673;28;20461;-63
2023/12/28 08:59:19;;;;;;;7.90;4.50;;;8.90;98.00;;;;;;4992648;28;20532;-64
2023/12/28 09:01:46;;;;;;;9.47;4.73;;;8.80;98.00;;;;;;4992572;28;20462;-64
2023/12/28 09:04:15;;;;;;;8.60;3.87;;;8.70;98.00;;;;;;4992829;28;20889;-63
2023/12/28 09:06:42;;;;;;;7.50;3.80;;;8.60;98.00;;;;;;4992708;28;20858;-64
2023/12/28 09:09:09;;;;;;;6.60;3.67;;;8.60;98.00;;;;;;4992792;28;20458;-64
2023/12/28 09:14:12;;;;;;;9.60;4.60;;;8.80;98.00;;;;;;5051120;23;20517;-63
2023/12/28 09:16:41;;;;;;;9.60;4.20;;;8.80;98.00;;;;;;4992356;28;20464;-62
2023/12/28 09:19:08;;;;;;;8.83;4.43;;;8.80;98.00;;;;;;4992296;28;20453;-62
2023/12/28 09:21:41;;;;;;;12.97;5.27;;;8.80;98.00;;;;;;4992048;28;20457;-63
2023/12/28 09:24:09;;;;;;;15.70;6.67;;;8.80;98.00;;;;;;4992254;28;20466;-63
2023/12/28 09:26:36;;;;;;;11.77;5.40;;;8.80;98.00;;;;;;4992306;28;20458;-62
2023/12/28 09:29:03;;;;;;;11.17;5.40;;;8.80;98.00;;;;;;4992176;28;20454;-62
2023/12/28 09:31:31;;;;;;;11.20;5.97;;;9.00;98.00;;;;;;4992249;28;20497;-62
2023/12/28 09:33:59;;;;;;;12.30;6.17;;;8.90;98.00;;;;;;4992247;28;20461;-62
2023/12/28 09:36:26;;;;;;;11.77;5.37;;;9.00;98.00;;;;;;4992279;28;20456;-63
2023/12/28 09:38:55;;;;;;;11.50;5.00;;;8.90;98.00;;;;;;4991104;28;20689;-62
2023/12/28 09:41:26;;;;;;;11.77;5.70;;;8.80;98.00;;;;;;4990117;28;20493;-62
2023/12/28 09:43:55;;;;;;;14.67;5.97;;;8.80;98.00;;;;;;4990509;28;20994;-62
2023/12/28 09:46:26;;;;;;;9.63;5.03;;;8.80;98.00;;;;;;4990265;28;20454;-62
2023/12/28 09:48:57;;;;;;;12.80;5.20;;;8.90;98.00;;;;;;4990248;28;20776;-62
2023/12/28 09:51:25;;;;;;;11.30;5.30;;;8.90;98.00;;;;;;4988420;28;20727;-62
2023/12/28 09:53:53;;;;;;;15.20;5.80;;;9.10;98.00;;;;;;4990288;28;20460;-62
2023/12/28 09:56:20;;;;;;;13.33;5.70;;;9.10;98.00;;;;;;4992002;28;20518;-63
2023/12/28 09:58:50;;;;;;;11.83;4.57;;;9.10;98.00;;;;;;4990519;28;20859;-62
2023/12/28 10:01:19;;;;;;;11.90;6.10;;;9.20;98.00;;;;;;4991826;28;20875;-62
2023/12/28 10:03:46;;;;;;;11.53;5.67;;;9.30;98.00;;;;;;4990289;28;20807;-62
2023/12/28 10:06:16;;;;;;;11.80;5.77;;;9.40;98.00;;;;;;4991903;28;20463;-62
2023/12/28 10:08:47;;;;;;;12.93;6.10;;;9.30;98.00;;;;;;4991418;28;20481;-62
2023/12/28 10:11:16;;;;;;;14.80;6.53;;;9.30;98.00;;;;;;4991644;28;20885;-63
2023/12/28 10:13:43;;;;;;;10.97;5.47;;;9.20;98.00;;;;;;4991664;28;20473;-62
2023/12/28 10:16:11;;;;;;;13.50;6.37;;;9.40;98.00;;;;;;4991368;28;20544;-62
2023/12/28 10:18:42;;;;;;;10.67;6.20;;;9.30;98.00;;;;;;4991495;28;20450;-63
2023/12/28 10:21:09;;;;;;;11.53;5.60;;;9.20;98.00;;;;;;4991572;28;20960;-62
2023/12/28 10:23:38;;;;;;;12.27;6.30;;;9.30;98.00;;;;;;4991278;28;20454;-62
2023/12/28 10:26:06;;;;;;;12.17;5.83;;;9.30;98.00;;;;;;4991934;28;20459;-62
2023/12/28 10:28:38;;;;;;;13.53;5.80;;;9.40;98.00;;;;;;4990343;28;20476;-62
2023/12/28 10:31:05;;;;;;;12.97;5.60;;;9.30;98.00;;;;;;4991488;28;20480;-62
2023/12/28 10:33:36;;;;;;;15.70;6.50;;;9.30;98.00;;;;;;4991535;28;20852;-62
2023/12/28 10:36:07;;;;;;;15.60;6.50;;;9.30;98.00;;;;;;4991461;28;20489;-63
2023/12/28 10:38:42;;;;;;;15.90;7.10;;;9.30;98.00;;;;;;4990807;28;20488;-62
2023/12/28 10:41:09;;;;;;;13.77;6.20;;;9.40;98.00;;;;;;4990230;28;20966;-63
2023/12/28 10:43:42;;;;;;;12.80;6.10;;;9.40;98.00;;;;;;4991457;28;20457;-62
2023/12/28 10:46:11;;;;;;;12.97;5.80;;;9.40;98.00;;;;;;4991374;28;20456;-62
2023/12/28 10:48:42;;;;;;;13.10;6.00;;;9.40;98.00;;;;;;4991390;28;20954;-63
2023/12/28 10:51:11;;;;;;;10.50;5.57;;;9.40;98.00;;;;;;4990845;28;20556;-62
2023/12/28 10:53:46;;;;;;;13.90;6.53;;;9.40;98.00;;;;;;4991520;28;20453;-63
2023/12/28 10:56:22;;;;;;;13.00;6.00;;;9.60;98.00;;;;;;4991196;28;20467;-62
2023/12/28 10:58:51;;;;;;;8.33;4.83;;;9.60;98.00;;;;;;4971852;28;20543;-62
2023/12/28 11:01:24;;;;;;;9.73;4.60;;;9.50;98.00;;;;;;4990101;28;20448;-62
2023/12/28 11:03:59;;;;;;;9.77;5.10;;;9.50;98.00;;;;;;4989221;28;20474;-63
2023/12/28 11:06:28;;;;;;;10.20;4.70;;;9.50;98.00;;;;;;4992683;28;20495;-62
2023/12/28 11:08:59;;;;;;;10.73;4.30;;;9.50;98.00;;;;;;4990913;28;20476;-62
2023/12/28 11:11:28;;;;;;;7.60;3.87;;;9.50;98.00;;;;;;4991268;28;20571;-63
2023/12/28 11:13:56;;;;;;;13.13;3.80;;;9.60;98.00;;;;;;4973012;28;20720;-63
2023/12/28 11:16:23;;;;;;;6.60;3.73;;;9.70;98.00;;;;;;4972397;28;20513;-63
2023/12/28 11:21:24;;;;;;;8.00;3.13;;;9.90;98.00;;;;;;4970737;28;20484;-62
2023/12/28 11:23:51;;;;;;;6.30;3.20;;;10.00;98.00;;;;;;4958345;28;20453;-63
2023/12/28 11:26:20;;;;;;;5.70;3.57;;;10.10;98.00;;;;;;4975508;28;20453;-63
2023/12/28 11:28:48;;;;;;;5.93;3.30;;;10.20;98.00;;;;;;4975604;28;20459;-63
2023/12/28 11:31:16;;;;;;;4.90;2.90;;;10.20;98.00;;;;;;4975164;28;20485;-62
2023/12/28 11:33:46;;;;;;;5.77;3.10;;;10.40;98.00;;;;;;4975383;28;20550;-62
2023/12/28 11:36:23;;;;;;;6.03;3.40;;;10.40;98.00;;;;;;4958288;28;20515;-62
2023/12/28 11:38:54;;;;;;;6.70;3.10;;;10.50;98.00;;;;;;4975321;28;20497;-63
2023/12/28 11:41:23;;;;;;;6.73;3.20;;;10.60;98.00;;;;;;4958386;28;20524;-63
2023/12/28 11:43:54;;;;;;;4.80;3.10;;;10.70;98.00;;;;;;4975041;28;20820;-62
2023/12/28 11:46:22;;;;;;;6.70;3.80;;;10.70;98.00;;;;;;4974918;28;20552;-63
2023/12/28 11:48:50;;;;;;;5.93;3.20;;;10.80;98.00;;;;;;4974866;28;20465;-63
2023/12/28 11:51:18;;;;;;;9.23;4.47;;;10.70;98.00;;;;;;4974743;28;20857;-62
2023/12/28 11:53:47;;;;;;;9.00;4.70;;;10.70;98.00;;;;;;4974937;28;20453;-63
2023/12/28 11:56:17;;;;;;;10.20;4.90;;;10.70;98.00;;;;;;4974801;28;20454;-63
2023/12/28 11:58:47;;;;;;;12.27;6.17;;;10.60;98.00;;;;;;4974550;28;20487;-63
2023/12/28 12:01:14;;;;;;;11.50;6.07;;;10.70;98.00;;;;;;4974562;28;20449;-62
2023/12/28 12:03:42;;;;;;;14.40;6.10;;;10.60;98.00;;;;;;4974533;28;20468;-63
2023/12/28 12:06:09;;;;;;;14.10;6.53;;;10.60;98.00;;;;;;4974123;28;20519;-62
2023/12/28 12:08:36;;;;;;;10.03;5.80;;;10.60;98.00;;;;;;4974454;28;20465;-63
2023/12/28 12:11:05;;;;;;;10.53;5.73;;;10.50;98.00;;;;;;4974299;28;20878;-63
2023/12/28 12:13:33;;;;;;;12.30;5.93;;;10.50;98.00;;;;;;4974727;28;20468;-62
2023/12/28 12:16:05;;;;;;;10.77;5.37;;;10.50;98.00;;;;;;4974608;28;20892;-62
2023/12/28 12:18:32;;;;;;;8.93;4.50;;;10.50;98.00;;;;;;4974219;28;20459;-62
2023/12/28 12:20:59;;;;;;;9.07;4.33;;;10.50;98.00;;;;;;4973958;28;20534;-62
2023/12/28 12:23:26;;;;;;;9.93;4.10;;;10.50;98.00;;;;;;4956617;28;20493;-63
2023/12/28 12:25:55;;;;;;;9.53;4.13;;;10.50;98.00;;;;;;4974069;28;20467;-63
2023/12/28 12:28:22;;;;;;;9.00;3.93;;;10.50;98.00;;;;;;4974144;28;21117;-63
2023/12/28 12:30:54;;;;;;;9.33;4.00;;;10.60;98.00;;;;;;4956624;28;20950;-63
2023/12/28 12:33:29;;;;;;;8.33;4.30;;;10.70;98.00;;;;;;4973588;28;20496;-63
2023/12/28 12:35:56;;;;;;;11.90;4.43;;;10.70;98.00;;;;;;4973970;28;20841;-63
2023/12/28 12:38:24;;;;;;;8.30;3.40;;;10.70;98.00;;;;;;4974702;28;20463;-62
2023/12/28 12:40:52;;;;;;;7.10;3.50;;;10.80;98.00;;;;;;4974582;28;20472;-62
2023/12/28 12:43:20;;;;;;;9.87;3.70;;;10.80;98.00;;;;;;4973876;28;20882;-63
2023/12/28 12:45:48;;;;;;;10.87;4.70;;;10.80;98.00;;;;;;4973734;28;20480;-62
2023/12/28 12:48:15;;;;;;;8.17;4.40;;;10.80;98.00;;;;;;4973780;28;20830;-63
2023/12/28 12:50:44;;;;;;;7.50;4.20;;;10.80;98.00;;;;;;4973797;28;20463;-63
2023/12/28 12:53:12;;;;;;;8.23;4.50;;;10.70;98.00;;;;;;4956354;28;20499;-63
2023/12/28 12:55:41;;;;;;;12.70;5.90;;;10.70;98.00;;;;;;4973598;28;20557;-63
2023/12/28 12:58:09;;;;;;;16.93;7.00;;;10.70;98.00;;;;;;4973432;28;20461;-63
2023/12/28 13:00:36;;;;;;;12.37;5.60;;;10.70;98.00;;;;;;4973441;28;20468;-63
2023/12/28 13:03:04;;;;;;;10.93;5.30;;;10.70;98.00;;;;;;4973376;28;20456;-63
2023/12/28 13:05:31;;;;;;;7.67;4.80;;;10.70;98.00;;;;;;4956406;28;20481;-63